Conceicao da Aparecida, Brazil
Current Conditions -  °F | °C
As of 7:00 AM on Tuesday 21 Oct 2014 (Local Time) from SBYS Reporting Station
Clear Clear  
Wind Chill: 64°   Ceiling: Unl
Heat Index: 64°   Visibility: 6mi
Dew Point: 59°   Wind: 13mph
Humidity: 83%   Direction: 160°SSE
Pressure: 30.06"   Gusts: NA
Location:  21.09°S, 46.2°W
Report Text: SBYS 210900Z 16011KT CAVOK 18/15 Q1018
Loading
Personal Weather Stations






























Interactive Weather Map
Tropical Storm Tracking
New forecast layout! Learn more

10-Day Weather Forecast

Advertisements
Track Severe Weather on mobile